createdAt,value
2017-06-28T00:00:16.921Z,62.50
2017-06-28T00:02:45.244Z,62.80
2017-06-28T00:05:12.798Z,62.30
2017-06-28T00:07:40.365Z,62.10
2017-06-28T00:10:07.894Z,61.90
2017-06-28T00:12:35.477Z,61.90
2017-06-28T00:15:03.040Z,62.00
2017-06-28T00:17:30.593Z,62.30
2017-06-28T00:19:58.154Z,62.20
2017-06-28T00:22:25.711Z,62.60
2017-06-28T00:24:53.241Z,62.70
2017-06-28T00:27:20.762Z,62.50
2017-06-28T00:29:48.284Z,62.70
2017-06-28T00:32:15.846Z,63.10
2017-06-28T00:34:43.371Z,63.20
2017-06-28T00:37:11.657Z,63.90
2017-06-28T00:39:39.238Z,63.80
2017-06-28T00:42:06.769Z,64.20
2017-06-28T00:44:34.365Z,64.00
2017-06-28T00:47:01.914Z,63.90
2017-06-28T00:49:29.476Z,63.90
2017-06-28T00:51:57.033Z,63.80
2017-06-28T00:54:24.557Z,63.50
2017-06-28T00:56:52.845Z,63.60
2017-06-28T00:59:20.442Z,63.60
2017-06-28T01:01:47.960Z,63.80
2017-06-28T01:04:15.477Z,63.80
2017-06-28T01:06:43.109Z,63.70
2017-06-28T01:09:10.661Z,63.80
2017-06-28T01:11:38.177Z,63.70
2017-06-28T01:14:06.497Z,63.60
2017-06-28T01:16:34.016Z,63.50
2017-06-28T01:19:02.338Z,63.40
2017-06-28T01:21:29.893Z,63.20
2017-06-28T01:23:57.449Z,63.20
2017-06-28T01:26:25.008Z,63.30
2017-06-28T01:28:52.521Z,63.50
2017-06-28T01:31:20.849Z,63.40
2017-06-28T01:33:48.404Z,63.40
2017-06-28T01:36:15.965Z,63.50
2017-06-28T01:38:43.481Z,63.60
2017-06-28T01:41:11.805Z,64.00
2017-06-28T01:43:39.457Z,64.00
2017-06-28T01:46:07.016Z,63.80
2017-06-28T01:48:34.539Z,63.90
2017-06-28T01:51:02.831Z,64.60
2017-06-28T01:53:30.366Z,64.50
2017-06-28T01:55:58.656Z,64.40
2017-06-28T01:58:26.961Z,65.50
2017-06-28T02:00:54.477Z,65.40
2017-06-28T02:03:22.805Z,64.90
2017-06-28T02:05:50.355Z,65.10
2017-06-28T02:08:17.881Z,65.40
2017-06-28T02:10:46.169Z,65.30
2017-06-28T02:13:13.748Z,65.30
2017-06-28T02:15:41.307Z,66.70
2017-06-28T02:18:08.829Z,66.50
2017-06-28T02:20:37.126Z,65.90
2017-06-28T02:23:04.701Z,65.90
2017-06-28T02:25:32.226Z,65.60
2017-06-28T02:28:00.509Z,65.80
2017-06-28T02:30:28.100Z,65.80
2017-06-28T02:32:55.970Z,65.50
2017-06-28T02:35:23.485Z,65.00
2017-06-28T02:37:51.768Z,67.80
2017-06-28T02:40:19.364Z,68.60
2017-06-28T02:42:46.916Z,67.50
2017-06-28T02:45:14.472Z,66.90
2017-06-28T02:47:42.031Z,67.00
2017-06-28T02:50:09.591Z,67.80
2017-06-28T02:52:37.149Z,67.30
2017-06-28T02:55:04.713Z,66.60
2017-06-28T02:57:32.241Z,66.30
2017-06-28T02:59:59.760Z,66.50
2017-06-28T03:02:27.381Z,66.10
2017-06-28T03:04:54.898Z,66.10
2017-06-28T03:07:26.034Z,66.30
2017-06-28T03:09:53.653Z,65.70
2017-06-28T03:12:21.168Z,65.70
2017-06-28T03:14:49.485Z,65.60
2017-06-28T03:17:17.009Z,65.50
2017-06-28T03:19:45.322Z,65.70
2017-06-28T03:22:12.845Z,65.60
2017-06-28T03:24:41.125Z,66.60
2017-06-28T03:27:08.709Z,65.70
2017-06-28T03:29:36.270Z,66.20
2017-06-28T03:32:03.832Z,66.40
2017-06-28T03:34:31.385Z,66.30
2017-06-28T03:36:58.945Z,66.20
2017-06-28T03:39:26.464Z,66.00
2017-06-28T03:41:54.752Z,66.50
2017-06-28T03:44:22.337Z,66.40
2017-06-28T03:46:49.853Z,66.80
2017-06-28T03:49:18.184Z,67.60
2017-06-28T03:51:45.732Z,67.20
2017-06-28T03:54:13.293Z,67.40
2017-06-28T03:56:40.817Z,67.60
2017-06-28T03:59:09.128Z,67.40
2017-06-28T04:01:36.686Z,67.40
2017-06-28T04:04:04.245Z,67.10
2017-06-28T04:06:31.803Z,66.90
2017-06-28T04:08:59.363Z,66.80
2017-06-28T04:11:26.921Z,66.60
2017-06-28T04:13:54.478Z,66.70
2017-06-28T04:16:22.000Z,66.30
2017-06-28T04:18:50.293Z,66.40
2017-06-28T04:21:17.885Z,66.30
2017-06-28T04:23:45.409Z,66.70
2017-06-28T04:26:12.991Z,66.90
2017-06-28T04:28:40.521Z,67.10
2017-06-28T04:31:08.830Z,68.90
2017-06-28T04:33:36.361Z,68.70
2017-06-28T04:36:03.898Z,68.00
2017-06-28T04:38:32.182Z,67.20
2017-06-28T04:41:00.493Z,66.90
2017-06-28T04:43:28.058Z,66.70
2017-06-28T04:45:55.616Z,66.90
2017-06-28T04:48:23.173Z,67.70
2017-06-28T04:50:50.733Z,67.00
2017-06-28T04:53:18.296Z,67.10
2017-06-28T04:55:45.851Z,66.40
2017-06-28T04:58:13.409Z,66.50
2017-06-28T05:00:40.965Z,66.80
2017-06-28T05:03:08.528Z,67.30
2017-06-28T05:05:36.084Z,67.30
2017-06-28T05:08:03.646Z,67.00
2017-06-28T05:10:31.168Z,67.10
2017-06-28T05:12:59.477Z,67.10
2017-06-28T05:15:27.036Z,67.00
2017-06-28T05:17:54.600Z,66.50
2017-06-28T05:20:22.126Z,66.10
2017-06-28T05:22:50.432Z,65.60
2017-06-28T05:25:17.964Z,65.60
2017-06-28T05:27:45.502Z,65.60
2017-06-28T05:30:13.828Z,66.40
2017-06-28T05:32:41.352Z,65.80
2017-06-28T05:35:09.655Z,66.30
2017-06-28T05:37:37.181Z,66.20
2017-06-28T05:40:05.492Z,65.70
2017-06-28T05:42:33.053Z,65.60
2017-06-28T05:45:00.610Z,65.30
2017-06-28T05:47:28.173Z,65.10
2017-06-28T05:49:55.685Z,66.20
2017-06-28T05:52:24.009Z,65.30
2017-06-28T05:54:51.566Z,65.20
2017-06-28T05:57:19.124Z,65.20
2017-06-28T05:59:46.693Z,65.30
2017-06-28T06:02:14.213Z,65.10
2017-06-28T06:04:41.742Z,65.00
2017-06-28T06:07:09.269Z,64.80
2017-06-28T06:09:36.817Z,64.20
2017-06-28T06:12:04.373Z,64.40
2017-06-28T06:14:31.904Z,64.20
2017-06-28T06:17:00.213Z,64.20
2017-06-28T06:19:27.769Z,64.10
2017-06-28T06:21:55.288Z,63.90
2017-06-28T06:24:23.605Z,62.90
2017-06-28T06:26:51.133Z,62.90
2017-06-28T06:29:19.442Z,62.60
2017-06-28T06:31:46.996Z,62.60
2017-06-28T06:34:14.517Z,62.50
2017-06-28T06:36:42.808Z,62.50
2017-06-28T06:39:10.338Z,62.30
2017-06-28T06:41:37.853Z,61.70
2017-06-28T06:44:05.409Z,61.00
2017-06-28T06:46:32.973Z,61.40
2017-06-28T06:49:00.522Z,61.60
2017-06-28T06:51:28.041Z,61.60
2017-06-28T06:53:56.360Z,62.10
2017-06-28T06:56:23.917Z,61.60
2017-06-28T06:58:51.475Z,61.20
2017-06-28T07:01:19.037Z,61.70
2017-06-28T07:03:46.552Z,61.90
2017-06-28T07:06:14.850Z,61.60
2017-06-28T07:08:42.437Z,61.60
2017-06-28T07:11:09.986Z,61.00
2017-06-28T07:13:37.546Z,60.40
2017-06-28T07:16:05.073Z,61.00
2017-06-28T07:18:32.606Z,61.20
2017-06-28T07:21:00.132Z,60.20
2017-06-28T07:23:27.656Z,60.10
2017-06-28T07:25:55.240Z,60.20
2017-06-28T07:28:22.765Z,59.80
2017-06-28T07:30:51.053Z,59.70
2017-06-28T07:33:18.837Z,59.70
2017-06-28T07:35:46.404Z,59.70
2017-06-28T07:38:13.955Z,60.20
2017-06-28T07:40:41.516Z,59.70
2017-06-28T07:43:09.081Z,59.40
2017-06-28T07:45:36.733Z,59.20
2017-06-28T07:48:04.249Z,58.50
2017-06-28T07:50:32.569Z,57.90
2017-06-28T07:53:00.133Z,57.80
2017-06-28T07:55:27.689Z,57.80
2017-06-28T07:57:55.247Z,57.90
2017-06-28T08:00:22.776Z,57.90
2017-06-28T08:02:51.061Z,57.10
2017-06-28T08:05:18.589Z,57.10
2017-06-28T08:07:46.117Z,57.50
2017-06-28T08:10:13.644Z,56.70
2017-06-28T08:12:41.160Z,56.40
2017-06-28T08:15:08.791Z,56.00
2017-06-28T08:17:36.332Z,56.60
2017-06-28T08:20:03.857Z,56.40
2017-06-28T08:22:32.173Z,56.90
2017-06-28T08:24:59.730Z,56.80
2017-06-28T08:27:27.286Z,56.20
2017-06-28T08:29:54.849Z,56.10
2017-06-28T08:32:22.381Z,55.60
2017-06-28T08:34:49.910Z,56.20
2017-06-28T08:37:17.532Z,55.30
2017-06-28T08:39:45.089Z,54.90
2017-06-28T08:42:12.621Z,54.60
2017-06-28T08:44:40.202Z,54.30
2017-06-28T08:47:07.729Z,53.90
2017-06-28T08:49:35.256Z,53.40
2017-06-28T08:52:02.876Z,53.50
2017-06-28T08:54:30.435Z,53.60
2017-06-28T08:56:57.953Z,53.40
2017-06-28T08:59:26.273Z,53.80
2017-06-28T09:01:53.833Z,53.80
2017-06-28T09:04:21.390Z,53.40
2017-06-28T09:06:48.947Z,53.50
2017-06-28T09:09:16.505Z,53.10
2017-06-28T09:11:44.065Z,53.10
2017-06-28T09:14:11.625Z,53.00
2017-06-28T09:16:39.184Z,53.70
2017-06-28T09:19:06.745Z,53.50
2017-06-28T09:21:34.303Z,52.80
2017-06-28T09:24:01.861Z,53.20
2017-06-28T09:26:29.410Z,52.50
2017-06-28T09:28:56.985Z,53.10
2017-06-28T09:31:24.538Z,53.40
2017-06-28T09:33:52.097Z,53.10
2017-06-28T09:36:19.653Z,52.80
2017-06-28T09:38:47.171Z,52.30
2017-06-28T09:41:14.776Z,51.80
2017-06-28T09:43:42.300Z,51.80
2017-06-28T09:46:10.588Z,50.60
2017-06-28T09:48:38.170Z,50.60
2017-06-28T09:51:05.729Z,50.90
2017-06-28T09:53:33.286Z,50.40
2017-06-28T09:56:00.806Z,49.60
2017-06-28T09:58:29.117Z,49.70
2017-06-28T10:00:56.678Z,49.70
2017-06-28T10:03:24.254Z,50.00
2017-06-28T10:05:51.796Z,50.50
2017-06-28T10:08:19.353Z,50.10
2017-06-28T10:10:46.884Z,49.10
2017-06-28T10:13:15.300Z,49.30
2017-06-28T10:15:42.850Z,49.40
2017-06-28T10:18:10.373Z,49.00
2017-06-28T10:20:38.689Z,50.90
2017-06-28T10:23:06.251Z,50.90
2017-06-28T10:25:33.810Z,51.00
2017-06-28T10:28:01.370Z,50.50
2017-06-28T10:30:28.921Z,50.30
2017-06-28T10:32:56.441Z,50.20
2017-06-28T10:35:24.734Z,48.60
2017-06-28T10:37:52.265Z,48.60
2017-06-28T10:40:20.589Z,50.20
2017-06-28T10:42:48.153Z,49.60
2017-06-28T10:45:15.714Z,48.90
2017-06-28T10:47:43.242Z,48.40
2017-06-28T10:50:10.847Z,48.70
2017-06-28T10:52:38.391Z,47.80
2017-06-28T10:55:05.909Z,47.40
2017-06-28T10:57:34.226Z,47.30
2017-06-28T11:00:01.780Z,47.30
2017-06-28T11:02:29.350Z,47.90
2017-06-28T11:04:56.868Z,47.60
2017-06-28T11:07:24.406Z,46.20
2017-06-28T11:09:52.029Z,46.70
2017-06-28T11:12:19.574Z,46.20
2017-06-28T11:14:47.101Z,45.90
2017-06-28T11:17:15.417Z,44.90
2017-06-28T11:19:42.968Z,44.90
2017-06-28T11:22:10.529Z,43.10
2017-06-28T11:24:38.085Z,43.20
2017-06-28T11:27:05.617Z,42.30
2017-06-28T11:29:33.209Z,43.00
2017-06-28T11:32:00.766Z,42.80
2017-06-28T11:34:28.324Z,42.40
2017-06-28T11:36:55.888Z,41.50
2017-06-28T11:39:23.441Z,42.00
2017-06-28T11:41:51.002Z,41.10
2017-06-28T11:44:18.559Z,41.30
2017-06-28T11:46:46.117Z,42.30
2017-06-28T11:49:13.677Z,41.50
2017-06-28T11:51:41.238Z,42.10
2017-06-28T11:54:08.762Z,42.50
2017-06-28T11:56:37.070Z,42.40
2017-06-28T11:59:04.601Z,42.30
2017-06-28T12:01:32.909Z,41.90
2017-06-28T12:04:00.465Z,41.80
2017-06-28T12:06:28.025Z,40.90
2017-06-28T12:08:55.587Z,40.20
2017-06-28T12:11:23.122Z,40.00
2017-06-28T12:13:50.703Z,40.20
2017-06-28T12:16:18.361Z,39.30
2017-06-28T12:18:45.884Z,39.80
2017-06-28T12:21:14.202Z,39.50
2017-06-28T12:23:42.035Z,39.50
2017-06-28T12:26:09.565Z,39.30
2017-06-28T12:28:37.189Z,39.80
2017-06-28T12:31:04.720Z,40.00
2017-06-28T12:33:32.300Z,39.20
2017-06-28T12:35:59.821Z,39.10
2017-06-28T12:38:28.134Z,39.60
2017-06-28T12:40:55.689Z,40.20
2017-06-28T12:43:23.205Z,38.50
2017-06-28T12:45:51.531Z,37.30
2017-06-28T12:48:19.089Z,37.10
2017-06-28T12:50:46.647Z,37.40
2017-06-28T12:53:14.210Z,37.70
2017-06-28T12:55:41.770Z,38.60
2017-06-28T12:58:09.313Z,38.10
2017-06-28T13:00:36.837Z,38.20
2017-06-28T13:03:05.158Z,36.90
2017-06-28T13:05:33.154Z,36.90
2017-06-28T13:08:00.793Z,36.80
2017-06-28T13:10:28.348Z,37.20
2017-06-28T13:12:55.906Z,37.70
2017-06-28T13:15:23.465Z,37.50
2017-06-28T13:17:51.050Z,37.10
2017-06-28T13:20:18.573Z,35.60
2017-06-28T13:22:46.149Z,36.40
2017-06-28T13:25:13.717Z,36.60
2017-06-28T13:27:41.265Z,34.10
2017-06-28T13:30:08.789Z,33.70
2017-06-28T13:32:37.098Z,33.50
2017-06-28T13:35:04.621Z,33.50
2017-06-28T13:37:32.932Z,33.60
2017-06-28T13:40:00.493Z,33.60
2017-06-28T13:42:28.050Z,35.20
2017-06-28T13:44:55.578Z,35.10
2017-06-28T13:47:23.882Z,35.10
2017-06-28T13:49:51.408Z,35.00
2017-06-28T13:52:19.720Z,33.50
2017-06-28T13:54:47.281Z,33.40
2017-06-28T13:57:14.842Z,33.80
2017-06-28T13:59:42.401Z,34.00
2017-06-28T14:02:09.959Z,32.30
2017-06-28T14:04:37.512Z,32.90
2017-06-28T14:07:05.047Z,31.50
2017-06-28T14:09:32.568Z,31.80
2017-06-28T14:12:00.090Z,32.20
2017-06-28T14:14:27.609Z,31.60
2017-06-28T14:16:55.901Z,32.20
2017-06-28T14:19:23.485Z,32.20
2017-06-28T14:21:51.042Z,32.50
2017-06-28T14:24:18.565Z,33.00
2017-06-28T14:26:46.852Z,32.90
2017-06-28T14:29:14.396Z,32.90
2017-06-28T14:31:42.694Z,30.90
2017-06-28T14:34:10.271Z,30.90
2017-06-28T14:36:37.793Z,31.60
2017-06-28T14:39:06.076Z,31.80
2017-06-28T14:41:34.382Z,31.60
2017-06-28T14:44:01.942Z,31.60
2017-06-28T14:46:29.503Z,31.80
2017-06-28T14:48:57.060Z,31.50
2017-06-28T14:51:24.620Z,32.50
2017-06-28T14:53:52.173Z,31.90
2017-06-28T14:56:19.741Z,31.50
2017-06-28T14:58:47.296Z,31.50
2017-06-28T15:01:14.809Z,32.10
2017-06-28T15:03:43.101Z,32.90
2017-06-28T15:06:11.385Z,32.80
2017-06-28T15:08:38.973Z,32.80
2017-06-28T15:11:06.497Z,32.90
2017-06-28T15:13:34.020Z,32.60
2017-06-28T15:16:01.653Z,32.40
2017-06-28T15:18:29.204Z,32.90
2017-06-28T15:20:56.737Z,32.70
2017-06-28T15:23:24.338Z,33.50
2017-06-28T15:25:51.864Z,34.10
2017-06-28T15:28:19.441Z,34.80
2017-06-28T15:30:47.001Z,35.40
2017-06-28T15:33:14.540Z,36.10
2017-06-28T15:35:42.118Z,37.10
2017-06-28T15:38:09.681Z,37.80
2017-06-28T15:40:37.249Z,38.00
2017-06-28T15:43:04.793Z,37.80
2017-06-28T15:45:32.355Z,37.10
2017-06-28T15:47:59.910Z,37.20
2017-06-28T15:50:27.470Z,37.50
2017-06-28T15:52:55.033Z,38.10
2017-06-28T15:55:22.548Z,38.60
2017-06-28T15:57:50.863Z,40.60
2017-06-28T16:00:18.385Z,40.60
2017-06-28T16:02:46.707Z,41.30
2017-06-28T16:05:14.239Z,41.20
2017-06-28T16:07:41.763Z,41.30
2017-06-28T16:10:09.381Z,41.70
2017-06-28T16:12:36.933Z,42.10
2017-06-28T16:15:04.478Z,42.20
2017-06-28T16:17:32.050Z,42.80
2017-06-28T16:19:59.569Z,42.90
2017-06-28T16:22:27.894Z,43.90
2017-06-28T16:24:55.453Z,43.80
2017-06-28T16:27:23.003Z,43.20
2017-06-28T16:29:51.065Z,42.80
2017-06-28T16:32:18.582Z,43.50
2017-06-28T16:34:46.105Z,43.70
2017-06-28T16:37:13.651Z,43.20
2017-06-28T16:39:41.209Z,43.90
2017-06-28T16:42:08.737Z,44.00
2017-06-28T16:44:37.052Z,44.50
2017-06-28T16:47:04.577Z,44.50
2017-06-28T16:49:32.095Z,44.60
2017-06-28T16:51:59.730Z,44.40
2017-06-28T16:54:27.286Z,44.70
2017-06-28T16:56:54.838Z,45.60
2017-06-28T16:59:22.357Z,44.70
2017-06-28T17:01:50.650Z,48.30
2017-06-28T17:04:18.237Z,48.20
2017-06-28T17:06:45.792Z,50.40
2017-06-28T17:09:13.351Z,52.90
2017-06-28T17:11:40.869Z,49.40
2017-06-28T17:14:09.184Z,51.40
2017-06-28T17:16:36.746Z,51.30
2017-06-28T17:19:04.266Z,51.80
2017-06-28T17:21:32.548Z,53.70
2017-06-28T17:24:00.857Z,52.00
2017-06-28T17:26:28.421Z,52.00
2017-06-28T17:28:55.977Z,50.90
2017-06-28T17:31:23.538Z,52.10
2017-06-28T17:33:51.061Z,54.40
2017-06-28T17:36:18.656Z,54.80
2017-06-28T17:38:46.209Z,56.30
2017-06-28T17:41:13.769Z,55.80
2017-06-28T17:43:41.328Z,55.10
2017-06-28T17:46:08.885Z,55.90
2017-06-28T17:48:37.220Z,56.90
2017-06-28T17:51:05.541Z,57.50
2017-06-28T17:53:33.076Z,57.50
2017-06-28T17:56:00.661Z,57.30
2017-06-28T17:58:28.225Z,58.00
2017-06-28T18:00:55.779Z,57.40
2017-06-28T18:03:23.338Z,57.30
2017-06-28T18:05:50.864Z,57.70
2017-06-28T18:08:19.169Z,58.40
2017-06-28T18:10:46.693Z,58.40
2017-06-28T18:13:14.981Z,57.30
2017-06-28T18:15:42.570Z,57.20
2017-06-28T18:18:10.118Z,57.90
2017-06-28T18:20:37.684Z,57.10
2017-06-28T18:23:05.241Z,57.40
2017-06-28T18:25:32.799Z,56.80
2017-06-28T18:28:00.313Z,57.20
2017-06-28T18:30:28.642Z,56.10
2017-06-28T18:32:56.210Z,56.10
2017-06-28T18:35:23.733Z,56.40
2017-06-28T18:37:51.321Z,54.80
2017-06-28T18:40:18.872Z,55.00
2017-06-28T18:42:46.437Z,55.70
2017-06-28T18:45:14.002Z,56.30
2017-06-28T18:47:41.521Z,56.90
2017-06-28T18:50:09.107Z,56.80
2017-06-28T18:52:36.629Z,55.90
2017-06-28T18:55:04.945Z,62.70
2017-06-28T18:57:32.502Z,62.60
2017-06-28T19:00:00.065Z,63.00
2017-06-28T19:02:27.583Z,62.40
2017-06-28T19:04:55.901Z,51.80
2017-06-28T19:07:23.453Z,51.80
2017-06-28T19:09:51.012Z,54.40
2017-06-28T19:12:18.525Z,52.80
2017-06-28T19:14:46.851Z,57.20
2017-06-28T19:17:14.383Z,56.50
2017-06-28T19:19:42.067Z,57.20
2017-06-28T19:22:09.627Z,58.20
2017-06-28T19:24:37.145Z,53.30
2017-06-28T19:27:05.424Z,54.00
2017-06-28T19:29:33.737Z,54.10
2017-06-28T19:32:01.308Z,54.00
2017-06-28T19:34:28.861Z,54.70
2017-06-28T19:36:56.414Z,55.30
2017-06-28T19:39:23.929Z,55.50
2017-06-28T19:41:52.248Z,56.50
2017-06-28T19:44:19.809Z,56.50
2017-06-28T19:46:47.337Z,56.10
2017-06-28T19:49:15.612Z,55.80
2017-06-28T19:51:43.925Z,56.50
2017-06-28T19:54:11.478Z,56.50
2017-06-28T19:56:39.036Z,57.20
2017-06-28T19:59:06.605Z,57.60
2017-06-28T20:01:34.158Z,57.50
2017-06-28T20:04:01.718Z,57.70
2017-06-28T20:06:29.273Z,58.30
2017-06-28T20:08:56.796Z,57.90
2017-06-28T20:11:25.108Z,58.30
2017-06-28T20:13:52.665Z,58.90
2017-06-28T20:16:20.181Z,58.90
2017-06-28T20:18:48.505Z,59.10
2017-06-28T20:21:16.066Z,59.10
2017-06-28T20:23:43.620Z,59.70
2017-06-28T20:26:11.149Z,60.50
2017-06-28T20:28:39.437Z,61.50
2017-06-28T20:31:07.014Z,61.40
2017-06-28T20:33:34.573Z,61.00
2017-06-28T20:36:02.132Z,61.30
2017-06-28T20:38:29.657Z,60.80
2017-06-28T20:40:57.969Z,60.70
2017-06-28T20:43:25.490Z,60.70
2017-06-28T20:45:53.805Z,61.80
2017-06-28T20:48:21.336Z,61.70
2017-06-28T20:50:48.924Z,61.30
2017-06-28T20:53:16.482Z,61.50
2017-06-28T20:55:44.002Z,61.30
2017-06-28T20:58:12.313Z,62.40
2017-06-28T21:00:39.876Z,62.40
2017-06-28T21:03:07.437Z,63.20
2017-06-28T21:05:34.991Z,64.30
2017-06-28T21:08:02.550Z,64.60
2017-06-28T21:10:30.113Z,64.00
2017-06-28T21:12:57.666Z,63.60
2017-06-28T21:15:25.228Z,63.40
2017-06-28T21:17:52.786Z,64.20
2017-06-28T21:20:20.343Z,64.20
2017-06-28T21:22:47.868Z,64.10
2017-06-28T21:25:16.178Z,63.30
2017-06-28T21:27:43.742Z,63.10
2017-06-28T21:30:11.265Z,63.20
2017-06-28T21:32:39.573Z,63.80
2017-06-28T21:35:07.131Z,63.80
2017-06-28T21:37:34.655Z,63.60
2017-06-28T21:40:02.969Z,63.90
2017-06-28T21:42:30.534Z,63.90
2017-06-28T21:44:58.085Z,63.90
2017-06-28T21:47:25.649Z,63.80
2017-06-28T21:49:53.202Z,64.20
2017-06-28T21:52:20.762Z,65.00
2017-06-28T21:54:48.277Z,65.80
2017-06-28T21:57:16.559Z,67.00
2017-06-28T21:59:44.859Z,66.10
2017-06-28T22:02:12.431Z,65.90
2017-06-28T22:04:39.993Z,65.90
2017-06-28T22:07:07.548Z,66.40
2017-06-28T22:09:35.107Z,67.20
2017-06-28T22:12:02.982Z,67.00
2017-06-28T22:14:30.513Z,66.90
2017-06-28T22:16:58.093Z,66.60
2017-06-28T22:19:37.745Z,66.20
2017-06-28T22:22:05.293Z,66.40
2017-06-28T22:24:32.854Z,67.40
2017-06-28T22:27:00.370Z,67.50
2017-06-28T22:29:28.661Z,67.80
2017-06-28T22:31:56.177Z,66.90
2017-06-28T22:34:23.814Z,67.10
2017-06-28T22:36:51.349Z,67.50
2017-06-28T22:39:18.930Z,67.50
2017-06-28T22:41:46.486Z,67.20
2017-06-28T22:44:14.041Z,66.80
2017-06-28T22:46:41.569Z,67.30
2017-06-28T22:49:09.981Z,66.90
2017-06-28T22:51:37.537Z,66.90
2017-06-28T22:54:05.061Z,67.10
2017-06-28T22:56:33.353Z,67.70
2017-06-28T22:59:00.929Z,68.50
2017-06-28T23:01:28.461Z,67.50
2017-06-28T23:03:56.749Z,67.80
2017-06-28T23:06:24.331Z,67.80
2017-06-28T23:08:51.883Z,67.80
2017-06-28T23:11:19.417Z,68.60
2017-06-28T23:13:47.002Z,68.20
2017-06-28T23:16:14.560Z,68.20
2017-06-28T23:18:42.119Z,67.80
2017-06-28T23:21:09.677Z,67.70
2017-06-28T23:23:37.249Z,67.80
2017-06-28T23:26:04.797Z,68.90
2017-06-28T23:28:32.316Z,70.10
2017-06-28T23:31:00.608Z,70.70
2017-06-28T23:33:28.222Z,70.70
2017-06-28T23:35:55.850Z,70.50
2017-06-28T23:38:23.383Z,70.70
2017-06-28T23:40:50.913Z,70.50
2017-06-28T23:43:18.537Z,69.70
2017-06-28T23:45:46.091Z,69.30
2017-06-28T23:48:13.649Z,69.50
2017-06-28T23:50:41.413Z,69.50
2017-06-28T23:53:08.973Z,69.60
2017-06-28T23:55:36.500Z,70.10
2017-06-28T23:58:04.085Z,70.00
